createdAt,value
2022-09-06T00:01:31.452Z,65.57
2022-09-06T00:04:17.331Z,65.70
2022-09-06T00:07:02.787Z,65.61
2022-09-06T00:09:48.134Z,65.41
2022-09-06T00:12:34.361Z,65.19
2022-09-06T00:15:21.091Z,65.32
2022-09-06T00:18:07.736Z,65.09
2022-09-06T00:20:53.470Z,65.38
2022-09-06T00:23:38.818Z,65.70
2022-09-06T00:26:24.942Z,65.62
2022-09-06T00:29:10.360Z,66.17
2022-09-06T00:31:56.010Z,65.78
2022-09-06T00:34:42.225Z,66.09
2022-09-06T00:37:27.764Z,66.09
2022-09-06T00:40:15.206Z,66.03
2022-09-06T00:43:00.825Z,66.00
2022-09-06T00:45:46.174Z,66.32
2022-09-06T00:48:31.989Z,66.39
2022-09-06T00:51:20.712Z,66.09
2022-09-06T00:54:08.878Z,66.24
2022-09-06T00:56:55.849Z,66.30
2022-09-06T00:59:42.815Z,66.56
2022-09-06T01:02:28.451Z,66.77
2022-09-06T01:05:15.274Z,67.53
2022-09-06T01:08:30.182Z,67.10
2022-09-06T01:11:15.330Z,67.16
2022-09-06T01:14:01.061Z,67.28
2022-09-06T01:17:18.660Z,67.55
2022-09-06T01:20:33.768Z,67.28
2022-09-06T01:23:54.126Z,67.08
2022-09-06T01:27:04.700Z,67.01
2022-09-06T01:29:53.026Z,66.58
2022-09-06T01:33:06.029Z,66.41
2022-09-06T01:36:00.096Z,67.25
2022-09-06T01:38:45.929Z,67.13
2022-09-06T01:41:32.490Z,67.15
2022-09-06T01:44:17.964Z,67.04
2022-09-06T01:47:12.052Z,66.88
2022-09-06T01:50:26.903Z,67.00
2022-09-06T01:53:21.653Z,67.12
2022-09-06T01:56:37.040Z,67.07
2022-09-06T01:59:55.907Z,67.28
2022-09-06T02:02:59.938Z,67.11
2022-09-06T02:05:54.223Z,67.27
2022-09-06T02:08:44.474Z,67.13
2022-09-06T02:11:36.490Z,67.16
2022-09-06T02:14:35.717Z,67.56
2022-09-06T02:17:27.184Z,68.00
2022-09-06T02:20:18.980Z,68.26
2022-09-06T02:23:08.471Z,68.62
2022-09-06T02:25:57.404Z,68.49
2022-09-06T02:28:43.370Z,68.60
2022-09-06T02:31:57.127Z,68.91
2022-09-06T02:34:43.333Z,68.57
2022-09-06T02:37:28.754Z,67.78
2022-09-06T02:40:14.225Z,68.15
2022-09-06T02:42:59.604Z,67.79
2022-09-06T02:45:44.885Z,68.12
2022-09-06T02:48:30.279Z,68.12
2022-09-06T02:51:16.017Z,68.66
2022-09-06T02:54:01.686Z,68.18
2022-09-06T02:56:50.252Z,68.14
2022-09-06T02:59:37.784Z,68.09
2022-09-06T03:02:23.129Z,68.12
2022-09-06T03:05:08.942Z,68.25
2022-09-06T03:07:55.543Z,68.39
2022-09-06T03:10:40.958Z,68.31
2022-09-06T03:13:26.810Z,68.66
2022-09-06T03:16:12.405Z,68.79
2022-09-06T03:18:58.053Z,68.63
2022-09-06T03:21:43.654Z,68.31
2022-09-06T03:24:28.981Z,68.11
2022-09-06T03:27:14.379Z,68.00
2022-09-06T03:29:59.968Z,67.68
2022-09-06T03:32:45.399Z,67.34
2022-09-06T03:35:30.644Z,67.55
2022-09-06T03:38:16.689Z,67.38
2022-09-06T03:41:02.158Z,67.73
2022-09-06T03:43:47.628Z,67.69
2022-09-06T03:46:33.052Z,68.05
2022-09-06T03:49:18.633Z,67.76
2022-09-06T03:52:04.673Z,67.34
2022-09-06T03:54:50.178Z,67.58
2022-09-06T03:57:35.590Z,67.33
2022-09-06T04:00:20.918Z,67.33
2022-09-06T04:03:06.519Z,67.52
2022-09-06T04:05:52.014Z,68.04
2022-09-06T04:08:38.602Z,68.65
2022-09-06T04:11:24.534Z,69.29
2022-09-06T04:14:09.759Z,69.77
2022-09-06T04:16:55.222Z,70.05
2022-09-06T04:19:41.357Z,70.07
2022-09-06T04:22:26.848Z,70.06
2022-09-06T04:25:13.777Z,70.59
2022-09-06T04:27:59.906Z,71.24
2022-09-06T04:31:04.307Z,71.55
2022-09-06T04:33:50.298Z,71.19
2022-09-06T04:36:36.227Z,71.07
2022-09-06T04:39:21.645Z,70.94
2022-09-06T04:42:07.299Z,71.02
2022-09-06T04:44:52.592Z,70.93
2022-09-06T04:47:38.102Z,70.36
2022-09-06T04:50:24.265Z,69.79
2022-09-06T04:53:12.313Z,69.15
2022-09-06T04:55:58.876Z,67.91
2022-09-06T04:58:46.391Z,66.81
2022-09-06T05:01:31.806Z,65.93
2022-09-06T05:04:17.089Z,65.07
2022-09-06T05:07:08.019Z,64.73
2022-09-06T05:09:53.746Z,64.42
2022-09-06T05:12:43.636Z,62.69
2022-09-06T05:15:30.641Z,61.80
2022-09-06T05:18:16.324Z,61.49
2022-09-06T05:21:02.402Z,61.30
2022-09-06T05:23:47.998Z,61.08
2022-09-06T05:26:33.521Z,60.26
2022-09-06T05:29:18.924Z,59.39
2022-09-06T05:32:04.500Z,59.64
2022-09-06T05:34:49.732Z,59.17
2022-09-06T05:37:35.150Z,58.40
2022-09-06T05:40:20.674Z,57.39
2022-09-06T05:43:06.013Z,56.99
2022-09-06T05:45:51.758Z,56.88
2022-09-06T05:48:37.617Z,56.27
2022-09-06T05:51:24.093Z,56.00
2022-09-06T05:54:12.763Z,55.23
2022-09-06T05:56:58.176Z,54.74
2022-09-06T05:59:43.676Z,53.51
2022-09-06T06:02:29.297Z,54.08
2022-09-06T06:05:14.969Z,54.15
2022-09-06T06:08:00.727Z,53.73
2022-09-06T06:10:46.469Z,53.62
2022-09-06T06:13:35.134Z,52.03
2022-09-06T06:16:22.434Z,51.63
2022-09-06T06:19:08.095Z,51.40
2022-09-06T06:21:56.246Z,51.06
2022-09-06T06:24:42.081Z,50.63
2022-09-06T06:27:28.106Z,51.38
2022-09-06T06:30:18.496Z,51.34
2022-09-06T06:33:04.421Z,51.18
2022-09-06T06:36:01.858Z,50.18
2022-09-06T06:38:48.616Z,50.80
2022-09-06T06:41:34.560Z,51.04
2022-09-06T06:44:19.906Z,52.14
2022-09-06T06:47:05.430Z,52.70
2022-09-06T06:49:50.697Z,51.31
2022-09-06T06:52:36.145Z,52.02
2022-09-06T06:55:21.502Z,51.93
2022-09-06T06:58:06.823Z,52.14
2022-09-06T07:00:52.534Z,51.71
2022-09-06T10:21:34.354Z,40.18
2022-09-06T10:24:55.687Z,40.75
2022-09-06T10:28:11.010Z,39.86
2022-09-06T10:31:06.669Z,40.24
2022-09-06T10:34:17.291Z,40.83
2022-09-06T10:37:22.087Z,39.89
2022-09-06T10:40:11.021Z,39.79
2022-09-06T10:43:00.478Z,38.56
2022-09-06T10:46:23.495Z,37.27
2022-09-06T10:49:15.377Z,39.50
2022-09-06T10:52:04.433Z,39.22
2022-09-06T10:54:51.266Z,39.45
2022-09-06T11:00:52.697Z,40.02
2022-09-06T11:04:01.864Z,37.96
2022-09-06T11:06:53.424Z,38.52
2022-09-06T11:09:47.493Z,38.87
2022-09-06T11:12:41.800Z,38.99
2022-09-06T11:15:33.910Z,39.73
2022-09-06T11:18:28.404Z,38.93
2022-09-06T11:21:29.136Z,37.63
2022-09-06T11:24:36.392Z,38.36
2022-09-06T11:27:37.762Z,39.75
2022-09-06T11:30:25.814Z,38.57
2022-09-06T11:33:29.309Z,37.18
2022-09-06T11:36:53.081Z,37.72
2022-09-06T11:42:51.201Z,39.17
2022-09-06T11:45:39.815Z,38.41
2022-09-06T11:48:34.090Z,40.02
2022-09-06T11:51:42.208Z,38.48
2022-09-06T11:54:42.513Z,38.84
2022-09-06T11:57:28.673Z,39.06
2022-09-06T12:00:23.867Z,38.09
2022-09-06T12:06:28.686Z,37.33
2022-09-06T12:09:46.807Z,36.65
2022-09-06T12:12:42.004Z,36.90
2022-09-06T12:15:30.772Z,37.50
2022-09-06T12:18:47.400Z,39.32
2022-09-06T12:21:47.707Z,38.58
2022-09-06T12:24:36.555Z,37.08
2022-09-06T12:27:25.121Z,37.96
2022-09-06T12:30:13.840Z,38.22
2022-09-06T12:33:01.113Z,38.28
2022-09-06T12:36:04.548Z,38.93
2022-09-06T12:39:10.635Z,38.17
2022-09-06T12:42:13.292Z,37.73
2022-09-06T12:44:59.041Z,38.60
2022-09-06T12:47:45.379Z,39.10
2022-09-06T12:50:31.515Z,38.08
2022-09-06T12:53:26.820Z,38.41
2022-09-06T12:56:13.110Z,37.47
2022-09-06T12:59:22.058Z,37.70
2022-09-06T13:02:16.421Z,38.74
2022-09-06T13:05:13.086Z,37.74
2022-09-06T13:08:02.725Z,37.63
2022-09-06T13:10:48.345Z,37.30
2022-09-06T13:13:33.971Z,37.92
2022-09-06T13:16:25.262Z,38.48
2022-09-06T13:19:15.450Z,38.49
2022-09-06T13:22:03.864Z,38.52
2022-09-06T13:24:49.624Z,39.24
2022-09-06T13:27:36.727Z,39.95
2022-09-06T13:30:42.773Z,39.50
2022-09-06T13:33:29.566Z,39.71
2022-09-06T13:36:24.474Z,40.07
2022-09-06T13:39:12.820Z,39.56
2022-09-06T13:42:11.726Z,38.97
2022-09-06T13:45:21.518Z,38.52
2022-09-06T13:48:26.121Z,38.89
2022-09-06T13:51:13.993Z,40.37
2022-09-06T13:54:15.624Z,39.73
2022-09-06T13:57:02.040Z,38.67
2022-09-06T13:59:47.457Z,39.55
2022-09-06T14:02:33.618Z,38.95
2022-09-06T14:05:19.284Z,38.71
2022-09-06T14:08:05.307Z,38.78
2022-09-06T14:10:51.928Z,38.97
2022-09-06T14:13:37.995Z,40.57
2022-09-06T14:16:29.919Z,39.77
2022-09-06T14:19:23.441Z,39.31
2022-09-06T14:22:09.409Z,38.42
2022-09-06T14:24:55.810Z,38.53
2022-09-06T14:27:41.793Z,38.85
2022-09-06T14:30:27.755Z,38.71
2022-09-06T14:33:13.374Z,38.49
2022-09-06T14:35:58.764Z,38.13
2022-09-06T14:38:45.090Z,38.48
2022-09-06T14:41:30.794Z,39.04
2022-09-06T14:44:16.863Z,39.25
2022-09-06T14:47:03.408Z,38.89
2022-09-06T14:49:48.987Z,38.33
2022-09-06T14:52:35.155Z,39.03
2022-09-06T14:55:21.314Z,38.08
2022-09-06T14:58:06.950Z,37.74
2022-09-06T15:00:52.659Z,37.19
2022-09-06T15:03:38.026Z,37.55
2022-09-06T15:06:25.584Z,38.14
2022-09-06T15:09:11.614Z,37.89
2022-09-06T15:11:57.198Z,38.11
2022-09-06T15:14:43.328Z,36.86
2022-09-06T15:17:28.707Z,37.48
2022-09-06T15:20:14.137Z,37.77
2022-09-06T15:23:24.187Z,38.08
2022-09-06T15:26:08.363Z,38.70
2022-09-06T15:28:54.105Z,38.45
2022-09-06T15:31:40.847Z,38.29
2022-09-06T15:34:26.601Z,37.70
2022-09-06T15:37:12.310Z,38.76
2022-09-06T15:39:57.793Z,39.80
2022-09-06T15:42:43.196Z,40.53
2022-09-06T15:45:28.834Z,40.22
2022-09-06T15:48:16.045Z,40.33
2022-09-06T15:51:02.932Z,40.62
2022-09-06T15:53:48.469Z,41.12
2022-09-06T15:56:33.978Z,41.78
2022-09-06T15:59:19.435Z,40.57
2022-09-06T16:02:05.064Z,40.09
2022-09-06T16:04:50.766Z,40.58
2022-09-06T16:07:40.942Z,40.87
2022-09-06T16:10:26.637Z,41.01
2022-09-06T16:13:11.928Z,41.13
2022-09-06T16:16:01.714Z,41.90
2022-09-06T16:18:47.367Z,42.35
2022-09-06T16:21:36.878Z,43.09
2022-09-06T16:24:23.047Z,44.12
2022-09-06T16:27:08.630Z,45.78
2022-09-06T16:29:54.930Z,46.97
2022-09-06T16:32:40.946Z,47.60
2022-09-06T16:35:26.656Z,48.10
2022-09-06T16:38:12.014Z,48.72
2022-09-06T16:41:15.595Z,49.22
2022-09-06T16:44:01.465Z,49.11
2022-09-06T16:46:49.005Z,49.15
2022-09-06T16:49:34.473Z,49.14
2022-09-06T16:52:20.035Z,49.58
2022-09-06T16:55:06.099Z,49.89
2022-09-06T16:57:51.546Z,50.13
2022-09-06T17:00:41.205Z,50.42
2022-09-06T17:03:27.002Z,50.58
2022-09-06T17:06:13.209Z,51.12
2022-09-06T17:08:59.584Z,51.11
2022-09-06T17:11:46.847Z,51.24
2022-09-06T17:14:32.445Z,51.68
2022-09-06T17:17:17.976Z,51.90
2022-09-06T17:20:04.120Z,52.22
2022-09-06T17:22:50.870Z,52.58
2022-09-06T17:25:36.497Z,53.13
2022-09-06T17:28:23.356Z,53.71
2022-09-06T17:31:13.835Z,54.03
2022-09-06T17:34:00.277Z,54.38
2022-09-06T17:36:46.020Z,54.83
2022-09-06T17:39:31.817Z,55.32
2022-09-06T17:42:17.462Z,56.06
2022-09-06T17:45:03.335Z,57.16
2022-09-06T17:47:49.513Z,57.62
2022-09-06T17:50:35.243Z,58.00
2022-09-06T17:53:21.062Z,58.61
2022-09-06T17:56:15.395Z,58.74
2022-09-06T17:59:06.589Z,59.10
2022-09-06T18:01:52.477Z,58.75
2022-09-06T18:04:38.319Z,58.38
2022-09-06T18:07:23.806Z,58.25
2022-09-06T18:10:09.929Z,58.13
2022-09-06T18:12:55.688Z,58.35
2022-09-06T18:15:41.628Z,58.11
2022-09-06T18:18:28.161Z,57.80
2022-09-06T18:21:14.079Z,57.31
2022-09-06T18:23:59.965Z,57.48
2022-09-06T18:26:48.453Z,57.55
2022-09-06T18:29:36.356Z,57.51
2022-09-06T18:32:21.888Z,56.79
2022-09-06T18:35:08.352Z,56.95
2022-09-06T18:37:53.642Z,57.47
2022-09-06T18:40:39.159Z,58.34
2022-09-06T18:43:31.783Z,59.13
2022-09-06T18:46:17.733Z,59.85
2022-09-06T18:49:04.040Z,59.89
2022-09-06T18:51:50.342Z,60.52
2022-09-06T18:54:35.939Z,61.04
2022-09-06T18:57:22.569Z,60.95
2022-09-06T19:00:09.468Z,61.10
2022-09-06T19:02:55.962Z,61.08
2022-09-06T19:05:42.352Z,61.17
2022-09-06T19:08:27.823Z,61.09
2022-09-06T19:11:16.954Z,60.88
2022-09-06T19:14:03.292Z,61.39
2022-09-06T19:16:50.155Z,61.71
2022-09-06T19:19:36.214Z,62.13
2022-09-06T19:22:22.819Z,62.27
2022-09-06T19:25:10.265Z,61.72
2022-09-06T19:27:55.851Z,61.12
2022-09-06T19:30:41.887Z,61.31
2022-09-06T19:33:34.221Z,61.39
2022-09-06T19:36:23.321Z,61.95
2022-09-06T19:39:12.414Z,62.08
2022-09-06T19:41:58.724Z,62.39
2022-09-06T19:44:44.318Z,62.36
2022-09-06T19:47:29.844Z,62.33
2022-09-06T19:50:15.414Z,61.81
2022-09-06T19:53:05.319Z,61.97
2022-09-06T19:55:52.519Z,62.29
2022-09-06T19:58:38.748Z,62.09
2022-09-06T20:01:26.278Z,62.40
2022-09-06T20:04:13.881Z,63.07
2022-09-06T20:06:59.124Z,62.80
2022-09-06T20:09:44.588Z,62.68
2022-09-06T20:12:32.298Z,62.07
2022-09-06T20:15:17.837Z,61.99
2022-09-06T20:18:03.185Z,62.19
2022-09-06T20:20:54.347Z,62.00
2022-09-06T20:23:40.977Z,62.50
2022-09-06T20:26:30.371Z,62.13
2022-09-06T20:29:16.005Z,62.96
2022-09-06T20:32:01.619Z,63.15
2022-09-06T20:34:46.949Z,62.97
2022-09-06T20:37:32.545Z,62.82
2022-09-06T20:40:17.903Z,62.32
2022-09-06T20:43:03.239Z,62.36
2022-09-06T20:45:49.529Z,62.02
2022-09-06T20:48:42.126Z,62.19
2022-09-06T20:51:29.929Z,61.90
2022-09-06T20:54:15.728Z,61.95
2022-09-06T20:57:01.104Z,62.36
2022-09-06T20:59:46.691Z,63.26
2022-09-06T21:02:32.185Z,63.31
2022-09-06T21:05:18.349Z,63.37
2022-09-06T21:08:04.386Z,63.15
2022-09-06T21:10:57.606Z,63.11
2022-09-06T21:13:43.895Z,62.89
2022-09-06T21:16:30.343Z,62.72
2022-09-06T21:19:16.517Z,62.82
2022-09-06T21:22:02.306Z,62.78
2022-09-06T21:24:47.511Z,63.05
2022-09-06T21:27:32.971Z,62.97
2022-09-06T21:30:19.092Z,62.63
2022-09-06T21:33:04.805Z,62.39
2022-09-06T21:35:50.725Z,62.85
2022-09-06T21:38:38.402Z,62.30
2022-09-06T21:41:24.054Z,62.14
2022-09-06T21:44:10.541Z,62.20
2022-09-06T21:46:56.597Z,62.21
2022-09-06T21:49:42.158Z,62.37
2022-09-06T21:52:32.333Z,63.12
2022-09-06T21:55:17.866Z,63.08
2022-09-06T21:58:03.269Z,63.67
2022-09-06T22:00:53.351Z,63.50
2022-09-06T22:03:40.338Z,63.96
2022-09-06T22:06:31.438Z,64.63
2022-09-06T22:09:17.031Z,64.54
2022-09-06T22:12:03.688Z,64.26
2022-09-06T22:14:49.185Z,63.68
2022-09-06T22:17:35.441Z,63.03
2022-09-06T22:20:22.077Z,63.17
2022-09-06T22:23:08.510Z,63.66
2022-09-06T22:26:08.079Z,62.92
2022-09-06T22:29:07.018Z,62.98
2022-09-06T22:31:52.879Z,63.16
2022-09-06T22:34:38.336Z,63.17
2022-09-06T22:37:23.973Z,62.81
2022-09-06T22:40:10.165Z,63.08
2022-09-06T22:42:55.806Z,62.91
2022-09-06T22:45:43.914Z,62.68
2022-09-06T22:48:30.603Z,63.22
2022-09-06T22:51:16.205Z,63.12
2022-09-06T22:54:01.988Z,62.86
2022-09-06T22:56:47.199Z,63.15
2022-09-06T22:59:35.919Z,62.71
2022-09-06T23:02:21.626Z,63.16
2022-09-06T23:05:07.041Z,62.76
2022-09-06T23:07:53.113Z,63.06
2022-09-06T23:10:41.685Z,62.47
2022-09-06T23:13:27.350Z,63.05
2022-09-06T23:16:19.224Z,63.14
2022-09-06T23:19:05.193Z,62.64
2022-09-06T23:21:51.076Z,63.01
2022-09-06T23:24:36.548Z,63.21
2022-09-06T23:27:22.303Z,63.34
2022-09-06T23:30:08.859Z,62.99
2022-09-06T23:32:56.428Z,63.26
2022-09-06T23:35:42.197Z,63.89
2022-09-06T23:38:27.757Z,63.61
2022-09-06T23:41:13.502Z,64.12
2022-09-06T23:43:59.073Z,64.07
2022-09-06T23:46:44.692Z,63.93
2022-09-06T23:49:30.077Z,63.71
2022-09-06T23:52:15.433Z,63.72
2022-09-06T23:55:01.047Z,63.35
2022-09-06T23:57:46.487Z,63.26
